createdAt,value
2022-08-14T00:00:00.349Z,10.25
2022-08-14T00:02:31.230Z,13.77
2022-08-14T00:05:02.250Z,9.85
2022-08-14T00:07:34.041Z,11.68
2022-08-14T00:10:51.569Z,10.02
2022-08-14T00:12:58.308Z,13.60
2022-08-14T00:15:43.734Z,14.13
2022-08-14T00:18:30.660Z,13.95
2022-08-14T00:21:10.845Z,12.63
2022-08-14T00:23:42.526Z,14.50
2022-08-14T00:26:21.796Z,12.60
2022-08-14T00:28:56.920Z,8.88
2022-08-14T00:31:35.131Z,12.65
2022-08-14T00:34:37.521Z,11.00
2022-08-14T00:37:07.650Z,11.30
2022-08-14T00:39:38.117Z,15.38
2022-08-14T00:42:21.035Z,13.35
2022-08-14T00:44:52.686Z,11.32
2022-08-14T00:47:26.988Z,10.55
2022-08-14T00:50:01.218Z,9.38
2022-08-14T00:52:34.187Z,9.75
2022-08-14T00:55:05.690Z,13.10
2022-08-14T00:57:39.753Z,11.18
2022-08-14T01:00:34.018Z,9.32
2022-08-14T01:03:06.044Z,14.35
2022-08-14T01:05:41.842Z,11.13
2022-08-14T01:08:51.163Z,13.77
2022-08-14T01:11:20.101Z,18.25
2022-08-14T01:13:56.112Z,12.18
2022-08-14T01:16:32.837Z,10.02
2022-08-14T01:19:21.810Z,9.23
2022-08-14T01:21:53.320Z,9.87
2022-08-14T01:24:30.827Z,10.43
2022-08-14T01:27:07.462Z,7.63
2022-08-14T01:30:01.027Z,9.23
2022-08-14T01:32:30.882Z,10.23
2022-08-14T01:35:17.494Z,10.68
2022-08-14T01:38:01.238Z,9.18
2022-08-14T01:40:40.956Z,12.45
2022-08-14T01:43:22.090Z,13.98
2022-08-14T01:45:57.986Z,12.73
2022-08-14T01:48:37.989Z,11.25
2022-08-14T01:51:18.344Z,9.48
2022-08-14T01:53:55.456Z,11.45
2022-08-14T01:56:39.993Z,7.63
2022-08-14T01:59:24.047Z,9.80
2022-08-14T02:01:59.507Z,9.80
2022-08-14T02:04:55.681Z,8.88
2022-08-14T02:07:34.460Z,4.75
2022-08-14T02:10:17.064Z,5.28
2022-08-14T02:12:57.135Z,7.38
2022-08-14T02:15:28.646Z,10.77
2022-08-14T02:17:59.059Z,9.07
2022-08-14T02:20:32.957Z,8.10
2022-08-14T02:23:04.298Z,5.65
2022-08-14T02:25:34.695Z,4.45
2022-08-14T02:28:24.096Z,5.40
2022-08-14T02:30:57.428Z,8.73
2022-08-14T02:33:29.698Z,7.43
2022-08-14T02:37:04.765Z,5.35
2022-08-14T02:38:57.446Z,5.40
2022-08-14T02:41:32.763Z,6.20
2022-08-14T02:44:09.001Z,4.97
2022-08-14T02:46:49.870Z,4.95
2022-08-14T02:49:20.571Z,3.92
2022-08-14T02:51:56.315Z,4.72
2022-08-14T02:54:28.792Z,4.90
2022-08-14T02:57:16.158Z,4.07
2022-08-14T02:59:52.820Z,2.85
2022-08-14T03:02:48.629Z,5.65
2022-08-14T03:05:14.448Z,4.15
2022-08-14T03:07:46.953Z,3.53
2022-08-14T03:10:25.729Z,8.75
2022-08-14T03:12:59.436Z,5.28
2022-08-14T03:15:34.964Z,9.07
2022-08-14T03:18:07.980Z,5.57
2022-08-14T03:20:42.758Z,6.82
2022-08-14T03:23:13.447Z,9.23
2022-08-14T03:25:48.425Z,6.60
2022-08-14T03:31:08.359Z,9.43
2022-08-14T03:37:37.978Z,8.68
2022-08-14T03:39:27.555Z,10.02
2022-08-14T03:47:46.541Z,5.00
2022-08-14T03:50:30.786Z,7.82
2022-08-14T03:55:50.582Z,10.73
2022-08-14T03:58:23.797Z,9.70
2022-08-14T04:01:07.717Z,4.78
2022-08-14T04:03:38.807Z,10.23
2022-08-14T04:06:10.994Z,9.82
2022-08-14T04:08:53.048Z,10.00
2022-08-14T04:11:28.466Z,9.20
2022-08-14T04:13:59.535Z,13.23
2022-08-14T04:16:31.883Z,14.10
2022-08-14T04:19:06.698Z,15.05
2022-08-14T04:27:11.618Z,28.20
2022-08-14T04:29:46.196Z,21.48
2022-08-14T04:32:57.600Z,19.10
2022-08-14T04:35:10.521Z,13.82
2022-08-14T04:37:59.190Z,15.82
2022-08-14T04:40:47.946Z,18.52
2022-08-14T04:43:42.399Z,18.00
2022-08-14T04:46:56.667Z,20.90
2022-08-14T04:49:09.568Z,22.85
2022-08-14T04:51:55.604Z,21.88
2022-08-14T04:54:30.761Z,17.52
2022-08-14T04:59:47.939Z,22.35
2022-08-14T05:02:19.412Z,15.50
2022-08-14T05:04:56.744Z,15.93
2022-08-14T05:10:16.671Z,17.35
2022-08-14T05:13:14.453Z,16.05
2022-08-14T05:19:25.280Z,11.00
2022-08-14T05:22:00.126Z,10.85
2022-08-14T05:29:51.997Z,11.18
2022-08-14T05:32:22.859Z,10.95
2022-08-14T05:34:53.430Z,9.15
2022-08-14T05:37:26.799Z,8.68
2022-08-14T05:39:57.501Z,14.85
2022-08-14T05:42:29.216Z,11.02
2022-08-14T05:45:04.166Z,8.55
2022-08-14T05:47:39.605Z,8.20
2022-08-14T05:50:19.694Z,12.25
2022-08-14T05:52:52.307Z,13.00
2022-08-14T05:55:24.401Z,10.30
2022-08-14T05:57:57.884Z,12.60
2022-08-14T06:00:37.175Z,13.98
2022-08-14T06:03:13.640Z,10.23
2022-08-14T06:05:45.136Z,13.48
2022-08-14T06:08:41.016Z,13.40
2022-08-14T06:11:14.726Z,7.15
2022-08-14T06:13:46.223Z,8.70
2022-08-14T06:16:20.103Z,5.60
2022-08-14T06:18:52.858Z,5.00
2022-08-14T06:21:58.211Z,5.90
2022-08-14T06:24:34.883Z,6.05
2022-08-14T06:27:10.084Z,8.95
2022-08-14T06:32:38.283Z,7.82
2022-08-14T06:38:00.429Z,7.85
2022-08-14T06:43:27.000Z,9.50
2022-08-14T06:46:00.333Z,6.80
2022-08-14T06:48:32.748Z,7.95
2022-08-14T06:51:05.753Z,8.38
2022-08-14T06:53:36.168Z,12.82
2022-08-14T06:56:07.006Z,7.93
2022-08-14T07:01:42.232Z,10.80
2022-08-14T07:04:32.045Z,9.77
2022-08-14T07:07:06.505Z,9.77
2022-08-14T07:09:43.573Z,5.20
2022-08-14T07:12:54.948Z,7.35
2022-08-14T07:17:55.687Z,10.23
2022-08-14T07:20:30.919Z,5.28
2022-08-14T07:23:09.240Z,5.03
2022-08-14T07:25:44.396Z,14.90
2022-08-14T07:31:16.339Z,5.57
2022-08-14T07:33:51.120Z,9.27
2022-08-14T07:36:27.545Z,6.60
2022-08-14T07:41:50.195Z,7.28
2022-08-14T07:44:29.636Z,9.05
2022-08-14T07:47:05.585Z,7.80
2022-08-14T07:52:32.560Z,7.35
2022-08-14T07:55:04.552Z,4.55
2022-08-14T07:57:36.748Z,7.90
2022-08-14T08:00:30.905Z,5.38
2022-08-14T08:05:52.722Z,7.00
2022-08-14T08:08:27.156Z,17.00
2022-08-14T08:11:03.131Z,7.55
2022-08-14T08:13:39.431Z,11.55
2022-08-14T08:16:12.604Z,5.30
2022-08-14T08:18:46.543Z,3.10
2022-08-14T08:21:17.951Z,4.43
2022-08-14T08:23:51.109Z,7.35
2022-08-14T08:26:23.012Z,10.18
2022-08-14T08:29:01.511Z,14.30
2022-08-14T08:31:34.871Z,5.93
2022-08-14T08:34:14.210Z,7.35
2022-08-14T08:40:02.813Z,6.63
2022-08-14T08:42:38.756Z,12.10
2022-08-14T08:48:00.192Z,13.48
2022-08-14T08:53:12.869Z,7.50
2022-08-14T08:55:47.996Z,13.93
2022-08-14T08:58:25.366Z,11.98
2022-08-14T09:00:59.289Z,11.77
2022-08-14T09:03:31.436Z,17.48
2022-08-14T09:06:23.289Z,11.23
2022-08-14T09:08:58.990Z,10.50
2022-08-14T09:11:29.741Z,9.05
2022-08-14T09:14:01.541Z,8.35
2022-08-14T09:16:33.200Z,9.90
2022-08-14T09:19:06.638Z,8.07
2022-08-14T09:24:28.744Z,12.88
2022-08-14T09:27:04.791Z,11.15
2022-08-14T09:32:58.783Z,6.75
2022-08-14T09:35:57.025Z,8.40
2022-08-14T09:39:12.999Z,7.45
2022-08-14T09:42:33.650Z,11.50
2022-08-14T09:45:19.155Z,8.77
2022-08-14T09:47:58.284Z,15.40
2022-08-14T09:50:46.678Z,7.07
2022-08-14T09:53:21.406Z,13.00
2022-08-14T09:56:12.554Z,10.77
2022-08-14T09:59:15.862Z,9.23
2022-08-14T10:01:52.677Z,15.40
2022-08-14T10:04:27.008Z,12.32
2022-08-14T10:07:09.164Z,9.05
2022-08-14T10:09:59.814Z,7.47
2022-08-14T10:12:47.698Z,9.07
2022-08-14T10:15:29.839Z,7.38
2022-08-14T10:18:29.008Z,8.40
2022-08-14T10:21:03.907Z,10.80
2022-08-14T10:23:51.912Z,8.27
2022-08-14T10:26:28.213Z,11.05
2022-08-14T10:29:18.959Z,11.38
2022-08-14T10:32:03.616Z,9.95
2022-08-14T10:34:52.919Z,8.05
2022-08-14T10:37:27.924Z,6.50
2022-08-14T10:42:49.981Z,10.80
2022-08-14T10:45:23.310Z,12.50
2022-08-14T10:48:08.705Z,7.30
2022-08-14T10:50:52.523Z,13.20
2022-08-14T10:53:40.128Z,8.05
2022-08-14T10:56:21.744Z,12.00
2022-08-14T10:59:10.917Z,8.13
2022-08-14T11:01:42.704Z,8.68
2022-08-14T11:04:28.031Z,11.50
2022-08-14T11:07:01.579Z,5.97
2022-08-14T11:09:32.380Z,10.27
2022-08-14T11:12:33.822Z,5.88
2022-08-14T11:15:02.826Z,10.57
2022-08-14T11:17:38.407Z,8.98
2022-08-14T11:20:14.169Z,18.48
2022-08-14T11:22:52.479Z,8.57
2022-08-14T11:25:44.036Z,10.65
2022-08-14T11:28:46.882Z,7.97
2022-08-14T11:34:04.613Z,8.88
2022-08-14T11:37:09.780Z,12.40
2022-08-14T11:39:36.176Z,14.25
2022-08-14T11:45:00.190Z,11.13
2022-08-14T11:47:43.718Z,10.65
2022-08-14T11:50:37.419Z,9.70
2022-08-14T11:53:10.572Z,9.40
2022-08-14T11:55:44.538Z,11.80
2022-08-14T11:58:23.819Z,14.18
2022-08-14T12:01:02.144Z,8.95
2022-08-14T12:03:57.637Z,7.97
2022-08-14T12:09:15.208Z,13.02
2022-08-14T12:11:51.778Z,8.93
2022-08-14T12:14:31.129Z,11.13
2022-08-14T12:17:12.999Z,10.35
2022-08-14T12:19:54.396Z,8.23
2022-08-14T12:22:37.701Z,16.80
2022-08-14T12:25:16.729Z,15.70
2022-08-14T12:27:54.288Z,16.90
2022-08-14T12:30:56.584Z,13.48
2022-08-14T12:33:33.069Z,9.20
2022-08-14T12:41:57.297Z,11.75
2022-08-14T12:44:37.079Z,9.23
2022-08-14T12:50:01.164Z,7.72
2022-08-14T12:55:32.544Z,13.60
2022-08-14T12:58:35.232Z,10.00
2022-08-14T13:01:17.066Z,13.88
2022-08-14T13:06:39.242Z,11.23
2022-08-14T13:09:12.112Z,21.38
2022-08-14T13:11:58.467Z,17.45
2022-08-14T13:14:33.079Z,16.23
2022-08-14T13:17:05.450Z,12.35
2022-08-14T13:19:42.042Z,15.70
2022-08-14T13:24:58.868Z,17.17
2022-08-14T13:27:29.667Z,19.20
2022-08-14T13:30:10.437Z,13.48
2022-08-14T13:32:42.969Z,12.70
2022-08-14T13:35:18.046Z,10.88
2022-08-14T13:37:52.310Z,6.43
2022-08-14T13:40:26.210Z,13.05
2022-08-14T13:42:58.468Z,11.95
2022-08-14T13:45:56.415Z,16.85
2022-08-14T13:48:32.130Z,15.68
2022-08-14T13:51:12.740Z,18.77
2022-08-14T13:54:06.874Z,15.23
2022-08-14T13:56:44.322Z,14.93
2022-08-14T14:02:11.296Z,12.77
2022-08-14T14:05:06.425Z,19.05
2022-08-14T14:07:39.150Z,18.45
2022-08-14T14:13:01.852Z,23.42
2022-08-14T14:15:58.168Z,15.90
2022-08-14T14:18:33.844Z,20.17
2022-08-14T14:21:09.107Z,15.85
2022-08-14T14:26:27.102Z,14.00
2022-08-14T14:29:01.542Z,15.07
2022-08-14T14:37:07.261Z,13.95
2022-08-14T14:40:53.879Z,13.45
2022-08-14T14:42:39.846Z,15.85
2022-08-14T14:45:25.960Z,13.43
2022-08-14T14:47:59.402Z,8.77
2022-08-14T14:50:29.950Z,11.27
2022-08-14T14:53:12.668Z,12.60
2022-08-14T14:58:34.715Z,10.73
2022-08-14T15:01:10.472Z,12.02
2022-08-14T15:03:48.236Z,8.95
2022-08-14T15:06:30.329Z,9.75
2022-08-14T15:09:04.691Z,12.10
2022-08-14T15:14:54.886Z,7.93
2022-08-14T15:17:14.100Z,6.32
2022-08-14T15:19:56.465Z,8.10
2022-08-14T15:22:31.003Z,8.25
2022-08-14T15:25:01.408Z,13.32
2022-08-14T15:27:33.601Z,7.35
2022-08-14T15:30:04.310Z,7.90
2022-08-14T15:32:34.858Z,7.75
2022-08-14T15:35:07.684Z,8.20
2022-08-14T15:40:24.607Z,10.38
2022-08-14T15:45:44.969Z,9.23
2022-08-14T15:48:22.220Z,8.68
2022-08-14T15:50:53.558Z,8.90
2022-08-14T15:53:26.711Z,11.15
2022-08-14T15:56:02.308Z,10.57
2022-08-14T15:58:32.752Z,11.77
2022-08-14T16:01:52.899Z,8.13
2022-08-14T16:04:22.301Z,11.38
2022-08-14T16:06:55.854Z,11.55
2022-08-14T16:09:26.435Z,11.60
2022-08-14T16:11:57.901Z,8.13
2022-08-14T16:14:29.874Z,12.13
2022-08-14T16:19:51.350Z,9.77
2022-08-14T16:23:00.336Z,12.95
2022-08-14T16:28:07.337Z,13.60
2022-08-14T16:30:37.945Z,7.70
2022-08-14T16:33:08.931Z,8.65
2022-08-14T16:36:00.798Z,11.30
2022-08-14T16:38:46.223Z,12.40
2022-08-14T16:40:23.725Z,12.65
2022-08-14T16:41:22.908Z,16.65
2022-08-14T16:43:59.290Z,12.25
2022-08-14T16:46:33.682Z,15.73
2022-08-14T16:49:09.781Z,19.00
2022-08-14T16:51:42.999Z,13.57
2022-08-14T16:54:33.943Z,18.60
2022-08-14T16:57:36.621Z,10.63
2022-08-14T17:00:27.729Z,20.33
2022-08-14T17:05:56.834Z,24.58
2022-08-14T17:08:41.788Z,10.07
2022-08-14T17:11:18.078Z,16.05
2022-08-14T17:16:39.129Z,12.93
2022-08-14T17:19:14.139Z,14.70
2022-08-14T17:21:47.767Z,6.75
2022-08-14T17:24:57.896Z,11.15
2022-08-14T17:27:18.457Z,15.40
2022-08-14T17:29:56.511Z,10.52
2022-08-14T17:35:20.052Z,11.40
2022-08-14T17:37:55.788Z,17.70
2022-08-14T17:43:18.832Z,21.73
2022-08-14T17:45:49.542Z,17.77
2022-08-14T17:49:13.874Z,16.58
2022-08-14T17:56:55.786Z,14.82
2022-08-14T18:02:16.514Z,16.08
2022-08-14T18:04:48.017Z,13.00
2022-08-14T18:07:59.484Z,14.15
2022-08-14T18:10:52.619Z,15.07
2022-08-14T18:13:10.720Z,16.05
2022-08-14T18:15:44.813Z,18.27
2022-08-14T18:18:21.938Z,18.17
2022-08-14T18:23:43.017Z,9.95
2022-08-14T18:26:37.530Z,13.25
2022-08-14T18:29:15.010Z,16.13
2022-08-14T18:37:28.560Z,18.05
2022-08-14T18:40:19.998Z,20.55
2022-08-14T18:42:52.721Z,10.13
2022-08-14T18:45:34.073Z,10.95
2022-08-14T18:48:21.071Z,11.05
2022-08-14T18:50:57.576Z,14.48
2022-08-14T18:53:34.070Z,17.48
2022-08-14T18:56:09.608Z,20.10
2022-08-14T18:58:56.838Z,15.13
2022-08-14T19:01:31.765Z,16.23
2022-08-14T19:07:48.192Z,15.70
2022-08-14T19:10:37.343Z,10.18
2022-08-14T19:13:13.056Z,10.88
2022-08-14T19:15:56.322Z,14.00
2022-08-14T19:18:29.797Z,11.13
2022-08-14T19:21:12.984Z,9.88
2022-08-14T19:23:44.763Z,5.63
2022-08-14T19:29:37.861Z,6.38
2022-08-14T19:32:41.145Z,6.28
2022-08-14T19:35:55.201Z,5.68
2022-08-14T19:41:51.936Z,3.53
2022-08-14T19:44:31.649Z,6.93
2022-08-14T19:47:06.200Z,2.85
2022-08-14T19:50:24.334Z,2.47
2022-08-14T19:52:39.653Z,4.97
2022-08-14T19:55:34.541Z,5.00
2022-08-14T19:58:07.302Z,2.97
2022-08-14T20:00:52.527Z,8.73
2022-08-14T20:03:24.476Z,5.45
2022-08-14T20:06:07.602Z,4.47
2022-08-14T20:12:01.136Z,11.13
2022-08-14T20:14:30.980Z,9.40
2022-08-14T20:17:06.792Z,4.13
2022-08-14T20:19:41.737Z,2.25
2022-08-14T20:22:36.702Z,5.45
2022-08-14T20:28:29.526Z,2.80
2022-08-14T20:31:19.609Z,7.32
2022-08-14T20:37:22.346Z,2.63
2022-08-14T20:39:54.397Z,8.07
2022-08-14T20:42:50.480Z,5.82
2022-08-14T20:45:24.186Z,6.18
2022-08-14T20:48:07.381Z,4.38
2022-08-14T20:50:45.034Z,5.65
2022-08-14T20:53:34.610Z,4.18
2022-08-14T20:56:28.401Z,3.15
2022-08-14T20:59:00.837Z,5.00
2022-08-14T21:01:35.779Z,5.72
2022-08-14T21:04:25.217Z,5.05
2022-08-14T21:07:25.330Z,4.68
2022-08-14T21:10:06.039Z,5.90
2022-08-14T21:15:32.181Z,4.35
2022-08-14T21:18:02.844Z,3.72
2022-08-14T21:20:33.492Z,3.47
2022-08-14T21:23:06.220Z,2.10
2022-08-14T21:28:29.826Z,3.13
2022-08-14T21:31:06.721Z,1.40
2022-08-14T21:36:30.942Z,3.78
2022-08-14T21:39:02.677Z,2.20
2022-08-14T21:41:42.271Z,1.88
2022-08-14T21:44:22.092Z,4.10
2022-08-14T21:46:55.363Z,2.47
2022-08-14T21:49:38.330Z,3.25
2022-08-14T21:52:50.716Z,2.00
2022-08-14T21:55:13.316Z,3.90
2022-08-14T21:58:04.157Z,6.45
2022-08-14T22:00:42.803Z,7.30
2022-08-14T22:08:54.429Z,11.77
2022-08-14T22:11:25.446Z,2.53
2022-08-14T22:17:01.537Z,7.60
2022-08-14T22:22:28.937Z,10.40
2022-08-14T22:25:01.216Z,8.80
2022-08-14T22:27:35.390Z,7.50
2022-08-14T22:30:26.428Z,5.78
2022-08-14T22:33:00.403Z,8.02
2022-08-14T22:38:37.639Z,14.73
2022-08-14T22:41:26.892Z,10.27
2022-08-14T22:46:56.951Z,7.97
2022-08-14T22:50:32.405Z,9.13
2022-08-14T22:52:31.719Z,6.20
2022-08-14T22:55:05.751Z,9.57
2022-08-14T22:57:37.214Z,7.32
2022-08-14T23:00:14.119Z,6.35
2022-08-14T23:02:45.060Z,8.07
2022-08-14T23:05:15.751Z,8.30
2022-08-14T23:08:58.942Z,6.65
2022-08-14T23:10:36.876Z,6.57
2022-08-14T23:13:09.976Z,6.72
2022-08-14T23:15:40.542Z,10.50
2022-08-14T23:18:14.113Z,7.13
2022-08-14T23:20:45.328Z,6.47
2022-08-14T23:23:22.747Z,7.95
2022-08-14T23:25:59.557Z,20.70
2022-08-14T23:31:34.426Z,22.38
2022-08-14T23:34:09.049Z,16.98
2022-08-14T23:36:53.491Z,26.58
2022-08-14T23:39:34.614Z,23.77
2022-08-14T23:42:11.085Z,39.28
2022-08-14T23:44:45.881Z,33.10
2022-08-14T23:47:26.759Z,37.63
2022-08-14T23:50:04.449Z,16.80
2022-08-14T23:52:51.575Z,15.55
2022-08-14T23:58:29.919Z,12.82
